sensor_id;sensor_type;location;lat;lon;timestamp;P1;durP1;ratioP1;P2;durP2;ratioP2
15177;SDS011;7689;53.612;-2.416;2022-10-14T00:01:52;8.97;;;6.60;;
15177;SDS011;7689;53.612;-2.416;2022-10-14T00:04:18;8.17;;;6.80;;
15177;SDS011;7689;53.612;-2.416;2022-10-14T00:06:43;15.57;;;7.27;;
15177;SDS011;7689;53.612;-2.416;2022-10-14T00:09:09;11.53;;;7.23;;
15177;SDS011;7689;53.612;-2.416;2022-10-14T00:11:35;13.35;;;6.97;;
15177;SDS011;7689;53.612;-2.416;2022-10-14T00:14:03;13.63;;;7.50;;
15177;SDS011;7689;53.612;-2.416;2022-10-14T00:16:32;11.90;;;6.85;;
15177;SDS011;7689;53.612;-2.416;2022-10-14T00:19:00;8.30;;;6.65;;
15177;SDS011;7689;53.612;-2.416;2022-10-14T00:21:27;13.18;;;7.15;;
15177;SDS011;7689;53.612;-2.416;2022-10-14T00:23:53;10.98;;;6.28;;
15177;SDS011;7689;53.612;-2.416;2022-10-14T00:26:21;12.40;;;6.20;;
15177;SDS011;7689;53.612;-2.416;2022-10-14T00:28:51;14.45;;;6.72;;
15177;SDS011;7689;53.612;-2.416;2022-10-14T00:31:17;12.77;;;6.37;;
15177;SDS011;7689;53.612;-2.416;2022-10-14T00:33:43;9.83;;;6.23;;
15177;SDS011;7689;53.612;-2.416;2022-10-14T00:36:10;9.13;;;7.07;;
15177;SDS011;7689;53.612;-2.416;2022-10-14T00:38:38;8.33;;;6.57;;
15177;SDS011;7689;53.612;-2.416;2022-10-14T00:41:04;12.77;;;7.70;;
15177;SDS011;7689;53.612;-2.416;2022-10-14T00:43:53;13.20;;;7.38;;
15177;SDS011;7689;53.612;-2.416;2022-10-14T00:46:21;10.03;;;6.03;;
15177;SDS011;7689;53.612;-2.416;2022-10-14T00:48:48;12.90;;;6.60;;
15177;SDS011;7689;53.612;-2.416;2022-10-14T00:51:15;9.70;;;6.73;;
15177;SDS011;7689;53.612;-2.416;2022-10-14T00:53:42;15.03;;;6.57;;
15177;SDS011;7689;53.612;-2.416;2022-10-14T00:56:08;7.53;;;6.37;;
15177;SDS011;7689;53.612;-2.416;2022-10-14T00:58:35;13.77;;;6.63;;
15177;SDS011;7689;53.612;-2.416;2022-10-14T01:01:02;8.63;;;6.33;;
15177;SDS011;7689;53.612;-2.416;2022-10-14T01:03:27;12.07;;;6.73;;
15177;SDS011;7689;53.612;-2.416;2022-10-14T01:05:55;10.97;;;6.77;;
15177;SDS011;7689;53.612;-2.416;2022-10-14T01:08:29;11.82;;;6.95;;
15177;SDS011;7689;53.612;-2.416;2022-10-14T01:11:08;9.75;;;6.30;;
15177;SDS011;7689;53.612;-2.416;2022-10-14T01:13:38;11.43;;;6.88;;
15177;SDS011;7689;53.612;-2.416;2022-10-14T01:32:35;11.30;;;7.47;;
15177;SDS011;7689;53.612;-2.416;2022-10-14T01:37:41;13.30;;;7.10;;
15177;SDS011;7689;53.612;-2.416;2022-10-14T01:40:14;12.05;;;6.28;;
15177;SDS011;7689;53.612;-2.416;2022-10-14T01:42:47;10.93;;;6.57;;
15177;SDS011;7689;53.612;-2.416;2022-10-14T01:45:15;8.13;;;6.05;;
15177;SDS011;7689;53.612;-2.416;2022-10-14T01:47:45;7.63;;;5.32;;
15177;SDS011;7689;53.612;-2.416;2022-10-14T01:50:14;10.95;;;6.55;;
15177;SDS011;7689;53.612;-2.416;2022-10-14T01:52:50;10.20;;;6.63;;
15177;SDS011;7689;53.612;-2.416;2022-10-14T01:55:23;8.05;;;6.68;;
15177;SDS011;7689;53.612;-2.416;2022-10-14T01:57:52;11.40;;;6.63;;
15177;SDS011;7689;53.612;-2.416;2022-10-14T02:00:21;11.90;;;6.88;;
15177;SDS011;7689;53.612;-2.416;2022-10-14T02:02:46;10.25;;;6.18;;
15177;SDS011;7689;53.612;-2.416;2022-10-14T02:05:14;8.27;;;6.32;;
15177;SDS011;7689;53.612;-2.416;2022-10-14T02:07:47;7.00;;;6.18;;
15177;SDS011;7689;53.612;-2.416;2022-10-14T02:10:23;10.02;;;5.90;;
15177;SDS011;7689;53.612;-2.416;2022-10-14T02:13:25;12.73;;;6.63;;
15177;SDS011;7689;53.612;-2.416;2022-10-14T02:23:50;9.68;;;5.75;;
15177;SDS011;7689;53.612;-2.416;2022-10-14T02:26:27;10.13;;;6.80;;
15177;SDS011;7689;53.612;-2.416;2022-10-14T02:28:54;11.73;;;6.78;;
15177;SDS011;7689;53.612;-2.416;2022-10-14T02:31:21;15.75;;;6.75;;
15177;SDS011;7689;53.612;-2.416;2022-10-14T02:33:49;8.35;;;5.78;;
15177;SDS011;7689;53.612;-2.416;2022-10-14T02:36:19;8.18;;;5.95;;
15177;SDS011;7689;53.612;-2.416;2022-10-14T02:38:46;9.27;;;5.90;;
15177;SDS011;7689;53.612;-2.416;2022-10-14T02:41:13;10.27;;;6.23;;
15177;SDS011;7689;53.612;-2.416;2022-10-14T02:43:43;11.13;;;5.32;;
15177;SDS011;7689;53.612;-2.416;2022-10-14T02:46:09;8.15;;;5.47;;
15177;SDS011;7689;53.612;-2.416;2022-10-14T02:48:35;12.10;;;5.72;;
15177;SDS011;7689;53.612;-2.416;2022-10-14T02:51:01;6.15;;;5.18;;
15177;SDS011;7689;53.612;-2.416;2022-10-14T02:53:27;12.77;;;5.63;;
15177;SDS011;7689;53.612;-2.416;2022-10-14T02:55:52;6.30;;;5.60;;
15177;SDS011;7689;53.612;-2.416;2022-10-14T02:58:18;12.00;;;5.73;;
15177;SDS011;7689;53.612;-2.416;2022-10-14T03:00:44;7.93;;;5.75;;
15177;SDS011;7689;53.612;-2.416;2022-10-14T03:03:09;8.75;;;5.30;;
15177;SDS011;7689;53.612;-2.416;2022-10-14T03:05:35;7.53;;;5.07;;
15177;SDS011;7689;53.612;-2.416;2022-10-14T03:08:00;7.63;;;5.20;;
15177;SDS011;7689;53.612;-2.416;2022-10-14T03:10:26;6.17;;;5.00;;
15177;SDS011;7689;53.612;-2.416;2022-10-14T03:12:52;5.82;;;5.03;;
15177;SDS011;7689;53.612;-2.416;2022-10-14T03:15:17;7.50;;;4.90;;
15177;SDS011;7689;53.612;-2.416;2022-10-14T03:17:43;7.57;;;4.60;;
15177;SDS011;7689;53.612;-2.416;2022-10-14T03:20:09;7.53;;;4.70;;
15177;SDS011;7689;53.612;-2.416;2022-10-14T03:22:35;7.80;;;4.68;;
15177;SDS011;7689;53.612;-2.416;2022-10-14T03:25:01;8.38;;;4.50;;
15177;SDS011;7689;53.612;-2.416;2022-10-14T03:27:27;6.80;;;4.38;;
15177;SDS011;7689;53.612;-2.416;2022-10-14T03:29:52;8.32;;;4.50;;
15177;SDS011;7689;53.612;-2.416;2022-10-14T03:32:18;6.20;;;4.55;;
15177;SDS011;7689;53.612;-2.416;2022-10-14T03:34:44;8.68;;;4.70;;
15177;SDS011;7689;53.612;-2.416;2022-10-14T03:37:09;6.75;;;4.43;;
15177;SDS011;7689;53.612;-2.416;2022-10-14T03:39:35;8.90;;;4.40;;
15177;SDS011;7689;53.612;-2.416;2022-10-14T03:42:01;9.10;;;4.47;;
15177;SDS011;7689;53.612;-2.416;2022-10-14T03:44:27;7.32;;;4.05;;
15177;SDS011;7689;53.612;-2.416;2022-10-14T03:46:53;7.68;;;4.40;;
15177;SDS011;7689;53.612;-2.416;2022-10-14T03:49:18;6.72;;;4.30;;
15177;SDS011;7689;53.612;-2.416;2022-10-14T03:51:44;7.68;;;4.05;;
15177;SDS011;7689;53.612;-2.416;2022-10-14T03:54:10;5.80;;;4.18;;
15177;SDS011;7689;53.612;-2.416;2022-10-14T03:56:35;6.95;;;4.63;;
15177;SDS011;7689;53.612;-2.416;2022-10-14T03:59:01;7.00;;;4.13;;
15177;SDS011;7689;53.612;-2.416;2022-10-14T04:01:26;6.82;;;4.25;;
15177;SDS011;7689;53.612;-2.416;2022-10-14T04:03:52;5.55;;;3.92;;
15177;SDS011;7689;53.612;-2.416;2022-10-14T04:06:18;5.03;;;3.90;;
15177;SDS011;7689;53.612;-2.416;2022-10-14T04:08:43;7.63;;;4.10;;
15177;SDS011;7689;53.612;-2.416;2022-10-14T04:11:09;12.05;;;4.47;;
15177;SDS011;7689;53.612;-2.416;2022-10-14T04:13:34;5.78;;;4.13;;
15177;SDS011;7689;53.612;-2.416;2022-10-14T04:16:06;6.00;;;3.83;;
15177;SDS011;7689;53.612;-2.416;2022-10-14T04:18:34;5.90;;;4.32;;
15177;SDS011;7689;53.612;-2.416;2022-10-14T04:21:00;6.93;;;4.70;;
15177;SDS011;7689;53.612;-2.416;2022-10-14T04:23:27;4.88;;;4.22;;
15177;SDS011;7689;53.612;-2.416;2022-10-14T04:25:53;5.82;;;4.32;;
15177;SDS011;7689;53.612;-2.416;2022-10-14T04:28:19;8.43;;;4.32;;
15177;SDS011;7689;53.612;-2.416;2022-10-14T04:30:45;8.52;;;4.50;;
15177;SDS011;7689;53.612;-2.416;2022-10-14T04:33:11;8.30;;;5.33;;
15177;SDS011;7689;53.612;-2.416;2022-10-14T04:35:37;6.35;;;5.00;;
15177;SDS011;7689;53.612;-2.416;2022-10-14T04:38:02;8.00;;;4.68;;
15177;SDS011;7689;53.612;-2.416;2022-10-14T04:40:28;6.85;;;5.07;;
15177;SDS011;7689;53.612;-2.416;2022-10-14T04:42:55;6.75;;;5.22;;
15177;SDS011;7689;53.612;-2.416;2022-10-14T04:45:21;6.82;;;5.60;;
15177;SDS011;7689;53.612;-2.416;2022-10-14T04:47:48;6.25;;;4.45;;
15177;SDS011;7689;53.612;-2.416;2022-10-14T04:50:14;9.57;;;4.38;;
15177;SDS011;7689;53.612;-2.416;2022-10-14T04:52:40;5.35;;;4.85;;
15177;SDS011;7689;53.612;-2.416;2022-10-14T04:57:35;5.97;;;4.30;;
15177;SDS011;7689;53.612;-2.416;2022-10-14T05:00:03;7.70;;;4.95;;
15177;SDS011;7689;53.612;-2.416;2022-10-14T05:02:29;7.32;;;5.13;;
15177;SDS011;7689;53.612;-2.416;2022-10-14T05:04:55;8.25;;;4.65;;
15177;SDS011;7689;53.612;-2.416;2022-10-14T05:07:21;6.85;;;4.65;;
15177;SDS011;7689;53.612;-2.416;2022-10-14T05:09:47;6.18;;;4.35;;
15177;SDS011;7689;53.612;-2.416;2022-10-14T05:12:12;8.55;;;4.90;;
15177;SDS011;7689;53.612;-2.416;2022-10-14T05:14:38;9.25;;;5.00;;
15177;SDS011;7689;53.612;-2.416;2022-10-14T05:17:04;7.15;;;4.43;;
15177;SDS011;7689;53.612;-2.416;2022-10-14T05:19:30;9.00;;;5.28;;
15177;SDS011;7689;53.612;-2.416;2022-10-14T05:21:56;6.75;;;4.80;;
15177;SDS011;7689;53.612;-2.416;2022-10-14T05:24:21;7.70;;;4.70;;
15177;SDS011;7689;53.612;-2.416;2022-10-14T05:26:47;5.82;;;5.20;;
15177;SDS011;7689;53.612;-2.416;2022-10-14T05:29:13;6.45;;;5.22;;
15177;SDS011;7689;53.612;-2.416;2022-10-14T05:31:39;7.93;;;4.80;;
15177;SDS011;7689;53.612;-2.416;2022-10-14T05:34:04;7.93;;;5.50;;
15177;SDS011;7689;53.612;-2.416;2022-10-14T05:36:30;9.17;;;5.33;;
15177;SDS011;7689;53.612;-2.416;2022-10-14T05:38:56;6.20;;;4.93;;
15177;SDS011;7689;53.612;-2.416;2022-10-14T05:41:25;7.05;;;5.55;;
15177;SDS011;7689;53.612;-2.416;2022-10-14T05:43:51;6.73;;;5.07;;
15177;SDS011;7689;53.612;-2.416;2022-10-14T05:46:17;10.07;;;5.80;;
15177;SDS011;7689;53.612;-2.416;2022-10-14T05:48:43;6.50;;;5.30;;
15177;SDS011;7689;53.612;-2.416;2022-10-14T05:51:08;7.43;;;5.70;;
15177;SDS011;7689;53.612;-2.416;2022-10-14T05:53:34;6.80;;;5.70;;
15177;SDS011;7689;53.612;-2.416;2022-10-14T05:56:03;6.97;;;5.30;;
15177;SDS011;7689;53.612;-2.416;2022-10-14T05:58:30;7.25;;;5.30;;
15177;SDS011;7689;53.612;-2.416;2022-10-14T06:01:02;8.10;;;5.03;;
15177;SDS011;7689;53.612;-2.416;2022-10-14T06:03:29;5.57;;;5.07;;
15177;SDS011;7689;53.612;-2.416;2022-10-14T06:05:55;7.37;;;5.50;;
15177;SDS011;7689;53.612;-2.416;2022-10-14T06:08:21;9.23;;;5.70;;
15177;SDS011;7689;53.612;-2.416;2022-10-14T06:10:49;6.53;;;5.55;;
15177;SDS011;7689;53.612;-2.416;2022-10-14T06:13:15;10.63;;;5.03;;
15177;SDS011;7689;53.612;-2.416;2022-10-14T06:15:41;7.63;;;5.47;;
15177;SDS011;7689;53.612;-2.416;2022-10-14T06:18:06;6.97;;;5.50;;
15177;SDS011;7689;53.612;-2.416;2022-10-14T06:20:33;8.48;;;5.28;;
15177;SDS011;7689;53.612;-2.416;2022-10-14T06:22:59;7.82;;;5.47;;
15177;SDS011;7689;53.612;-2.416;2022-10-14T06:25:25;4.97;;;4.53;;
15177;SDS011;7689;53.612;-2.416;2022-10-14T06:27:51;5.97;;;5.40;;
15177;SDS011;7689;53.612;-2.416;2022-10-14T06:30:16;8.80;;;6.40;;
15177;SDS011;7689;53.612;-2.416;2022-10-14T06:32:42;8.50;;;5.75;;
15177;SDS011;7689;53.612;-2.416;2022-10-14T06:35:08;8.40;;;6.18;;
15177;SDS011;7689;53.612;-2.416;2022-10-14T06:37:34;6.03;;;5.45;;
15177;SDS011;7689;53.612;-2.416;2022-10-14T06:40:01;7.45;;;5.80;;
15177;SDS011;7689;53.612;-2.416;2022-10-14T06:42:28;7.50;;;6.25;;
15177;SDS011;7689;53.612;-2.416;2022-10-14T06:44:53;8.93;;;6.43;;
15177;SDS011;7689;53.612;-2.416;2022-10-14T06:47:19;7.53;;;6.28;;
15177;SDS011;7689;53.612;-2.416;2022-10-14T06:49:44;8.48;;;7.13;;
15177;SDS011;7689;53.612;-2.416;2022-10-14T06:52:10;7.07;;;6.25;;
15177;SDS011;7689;53.612;-2.416;2022-10-14T06:54:36;9.65;;;6.80;;
15177;SDS011;7689;53.612;-2.416;2022-10-14T06:57:01;11.25;;;6.82;;
15177;SDS011;7689;53.612;-2.416;2022-10-14T06:59:27;11.00;;;6.87;;
15177;SDS011;7689;53.612;-2.416;2022-10-14T07:01:53;8.70;;;7.00;;
15177;SDS011;7689;53.612;-2.416;2022-10-14T07:04:19;17.20;;;9.32;;
15177;SDS011;7689;53.612;-2.416;2022-10-14T07:06:45;13.30;;;7.97;;
15177;SDS011;7689;53.612;-2.416;2022-10-14T07:09:11;14.10;;;9.20;;
15177;SDS011;7689;53.612;-2.416;2022-10-14T07:11:36;13.70;;;10.50;;
15177;SDS011;7689;53.612;-2.416;2022-10-14T07:14:02;12.97;;;9.60;;
15177;SDS011;7689;53.612;-2.416;2022-10-14T07:16:28;14.43;;;10.67;;
15177;SDS011;7689;53.612;-2.416;2022-10-14T07:18:53;18.73;;;12.03;;
15177;SDS011;7689;53.612;-2.416;2022-10-14T07:21:19;13.30;;;10.20;;
15177;SDS011;7689;53.612;-2.416;2022-10-14T07:23:45;14.57;;;11.43;;
15177;SDS011;7689;53.612;-2.416;2022-10-14T07:26:10;17.17;;;12.45;;
15177;SDS011;7689;53.612;-2.416;2022-10-14T07:28:36;15.18;;;12.48;;
15177;SDS011;7689;53.612;-2.416;2022-10-14T07:31:03;17.80;;;11.20;;
15177;SDS011;7689;53.612;-2.416;2022-10-14T07:33:31;18.77;;;11.50;;
15177;SDS011;7689;53.612;-2.416;2022-10-14T07:36:05;15.37;;;11.87;;
15177;SDS011;7689;53.612;-2.416;2022-10-14T07:38:34;14.85;;;11.48;;
15177;SDS011;7689;53.612;-2.416;2022-10-14T07:41:10;13.93;;;12.05;;
15177;SDS011;7689;53.612;-2.416;2022-10-14T07:43:44;13.35;;;10.30;;
15177;SDS011;7689;53.612;-2.416;2022-10-14T07:46:19;16.50;;;12.80;;
15177;SDS011;7689;53.612;-2.416;2022-10-14T07:49:14;14.68;;;11.57;;
15177;SDS011;7689;53.612;-2.416;2022-10-14T07:51:43;12.85;;;10.02;;
15177;SDS011;7689;53.612;-2.416;2022-10-14T07:54:12;15.05;;;10.50;;
15177;SDS011;7689;53.612;-2.416;2022-10-14T07:56:46;13.63;;;11.63;;
15177;SDS011;7689;53.612;-2.416;2022-10-14T07:59:15;16.65;;;11.60;;
15177;SDS011;7689;53.612;-2.416;2022-10-14T08:01:44;15.85;;;11.30;;
15177;SDS011;7689;53.612;-2.416;2022-10-14T08:04:14;11.55;;;9.95;;
15177;SDS011;7689;53.612;-2.416;2022-10-14T08:06:40;12.68;;;10.65;;
15177;SDS011;7689;53.612;-2.416;2022-10-14T08:09:07;13.10;;;10.82;;
15177;SDS011;7689;53.612;-2.416;2022-10-14T08:11:34;16.88;;;10.88;;
15177;SDS011;7689;53.612;-2.416;2022-10-14T08:14:00;16.98;;;12.90;;
15177;SDS011;7689;53.612;-2.416;2022-10-14T08:16:26;17.63;;;12.82;;
15177;SDS011;7689;53.612;-2.416;2022-10-14T08:18:55;13.75;;;10.45;;
15177;SDS011;7689;53.612;-2.416;2022-10-14T08:21:22;14.13;;;11.65;;
15177;SDS011;7689;53.612;-2.416;2022-10-14T08:23:48;15.60;;;13.40;;
15177;SDS011;7689;53.612;-2.416;2022-10-14T08:26:22;16.70;;;11.82;;
15177;SDS011;7689;53.612;-2.416;2022-10-14T08:28:53;17.90;;;12.25;;
15177;SDS011;7689;53.612;-2.416;2022-10-14T08:31:19;16.02;;;12.40;;
15177;SDS011;7689;53.612;-2.416;2022-10-14T08:33:45;12.25;;;9.70;;
15177;SDS011;7689;53.612;-2.416;2022-10-14T08:36:11;10.13;;;8.38;;
15177;SDS011;7689;53.612;-2.416;2022-10-14T08:38:38;14.60;;;9.80;;
15177;SDS011;7689;53.612;-2.416;2022-10-14T08:46:38;9.73;;;7.57;;
15177;SDS011;7689;53.612;-2.416;2022-10-14T08:52:34;9.60;;;7.28;;
15177;SDS011;7689;53.612;-2.416;2022-10-14T08:55:09;10.95;;;7.13;;
15177;SDS011;7689;53.612;-2.416;2022-10-14T08:57:42;12.10;;;7.20;;
15177;SDS011;7689;53.612;-2.416;2022-10-14T09:00:22;10.00;;;7.10;;
15177;SDS011;7689;53.612;-2.416;2022-10-14T09:02:49;7.68;;;6.88;;
15177;SDS011;7689;53.612;-2.416;2022-10-14T09:05:24;9.65;;;7.25;;
15177;SDS011;7689;53.612;-2.416;2022-10-14T09:07:53;10.65;;;6.90;;
15177;SDS011;7689;53.612;-2.416;2022-10-14T09:10:32;7.15;;;6.45;;
15177;SDS011;7689;53.612;-2.416;2022-10-14T09:16:13;6.03;;;5.32;;
15177;SDS011;7689;53.612;-2.416;2022-10-14T09:18:44;7.20;;;5.35;;
15177;SDS011;7689;53.612;-2.416;2022-10-14T09:21:31;6.65;;;5.10;;
15177;SDS011;7689;53.612;-2.416;2022-10-14T09:26:46;7.22;;;4.43;;
15177;SDS011;7689;53.612;-2.416;2022-10-14T09:29:19;6.15;;;4.50;;
15177;SDS011;7689;53.612;-2.416;2022-10-14T09:31:49;6.85;;;4.50;;
15177;SDS011;7689;53.612;-2.416;2022-10-14T09:34:16;6.32;;;3.75;;
15177;SDS011;7689;53.612;-2.416;2022-10-14T09:36:44;8.70;;;3.80;;
15177;SDS011;7689;53.612;-2.416;2022-10-14T09:39:12;5.65;;;3.35;;
15177;SDS011;7689;53.612;-2.416;2022-10-14T09:41:38;4.13;;;3.03;;
15177;SDS011;7689;53.612;-2.416;2022-10-14T09:44:18;6.15;;;3.63;;
15177;SDS011;7689;53.612;-2.416;2022-10-14T09:46:54;5.75;;;3.22;;
15177;SDS011;7689;53.612;-2.416;2022-10-14T09:52:06;5.25;;;2.40;;
15177;SDS011;7689;53.612;-2.416;2022-10-14T09:54:43;3.15;;;2.63;;
15177;SDS011;7689;53.612;-2.416;2022-10-14T09:57:16;6.10;;;2.58;;
15177;SDS011;7689;53.612;-2.416;2022-10-14T09:59:50;3.85;;;2.72;;
15177;SDS011;7689;53.612;-2.416;2022-10-14T10:02:41;7.30;;;2.50;;
15177;SDS011;7689;53.612;-2.416;2022-10-14T10:05:12;5.55;;;2.72;;
15177;SDS011;7689;53.612;-2.416;2022-10-14T10:07:46;3.72;;;2.30;;
15177;SDS011;7689;53.612;-2.416;2022-10-14T10:10:58;4.15;;;2.85;;
15177;SDS011;7689;53.612;-2.416;2022-10-14T10:13:42;2.65;;;2.45;;
15177;SDS011;7689;53.612;-2.416;2022-10-14T10:16:30;4.05;;;2.00;;
15177;SDS011;7689;53.612;-2.416;2022-10-14T10:18:55;4.47;;;2.10;;
15177;SDS011;7689;53.612;-2.416;2022-10-14T10:21:25;2.35;;;1.77;;
15177;SDS011;7689;53.612;-2.416;2022-10-14T10:23:58;3.47;;;2.00;;
15177;SDS011;7689;53.612;-2.416;2022-10-14T10:26:29;4.25;;;2.22;;
15177;SDS011;7689;53.612;-2.416;2022-10-14T10:28:58;4.50;;;2.25;;
15177;SDS011;7689;53.612;-2.416;2022-10-14T10:31:39;2.83;;;1.90;;
15177;SDS011;7689;53.612;-2.416;2022-10-14T10:36:56;2.97;;;1.85;;
15177;SDS011;7689;53.612;-2.416;2022-10-14T10:47:00;5.78;;;2.25;;
15177;SDS011;7689;53.612;-2.416;2022-10-14T10:55:58;6.20;;;2.05;;
15177;SDS011;7689;53.612;-2.416;2022-10-14T10:58:39;3.63;;;1.70;;
15177;SDS011;7689;53.612;-2.416;2022-10-14T11:10:54;2.47;;;1.58;;
15177;SDS011;7689;53.612;-2.416;2022-10-14T11:45:59;3.25;;;1.80;;
15177;SDS011;7689;53.612;-2.416;2022-10-14T11:50:57;2.75;;;2.03;;
15177;SDS011;7689;53.612;-2.416;2022-10-14T11:58:58;2.55;;;2.10;;
15177;SDS011;7689;53.612;-2.416;2022-10-14T12:01:27;5.30;;;2.00;;
15177;SDS011;7689;53.612;-2.416;2022-10-14T12:04:04;3.42;;;1.92;;
15177;SDS011;7689;53.612;-2.416;2022-10-14T12:06:37;5.07;;;2.40;;
15177;SDS011;7689;53.612;-2.416;2022-10-14T12:09:19;4.53;;;2.38;;
15177;SDS011;7689;53.612;-2.416;2022-10-14T12:11:50;6.80;;;2.65;;
15177;SDS011;7689;53.612;-2.416;2022-10-14T12:14:25;6.25;;;2.47;;
15177;SDS011;7689;53.612;-2.416;2022-10-14T12:16:54;5.53;;;2.50;;
15177;SDS011;7689;53.612;-2.416;2022-10-14T12:19:26;4.45;;;2.33;;
15177;SDS011;7689;53.612;-2.416;2022-10-14T12:24:38;5.28;;;3.22;;
15177;SDS011;7689;53.612;-2.416;2022-10-14T12:27:11;4.95;;;2.33;;
15177;SDS011;7689;53.612;-2.416;2022-10-14T12:29:42;4.88;;;2.42;;
15177;SDS011;7689;53.612;-2.416;2022-10-14T12:34:48;4.45;;;2.45;;
15177;SDS011;7689;53.612;-2.416;2022-10-14T12:42:28;6.05;;;2.50;;
15177;SDS011;7689;53.612;-2.416;2022-10-14T12:44:57;5.93;;;2.63;;
15177;SDS011;7689;53.612;-2.416;2022-10-14T12:47:35;5.45;;;2.50;;
15177;SDS011;7689;53.612;-2.416;2022-10-14T12:50:03;4.68;;;2.63;;
15177;SDS011;7689;53.612;-2.416;2022-10-14T12:52:38;6.70;;;2.40;;
15177;SDS011;7689;53.612;-2.416;2022-10-14T12:55:08;5.47;;;2.85;;
15177;SDS011;7689;53.612;-2.416;2022-10-14T12:57:41;2.40;;;2.10;;
15177;SDS011;7689;53.612;-2.416;2022-10-14T13:02:45;5.38;;;1.90;;
15177;SDS011;7689;53.612;-2.416;2022-10-14T13:16:06;6.18;;;2.08;;
15177;SDS011;7689;53.612;-2.416;2022-10-14T13:19:01;7.25;;;1.95;;
15177;SDS011;7689;53.612;-2.416;2022-10-14T13:21:29;5.15;;;1.60;;
15177;SDS011;7689;53.612;-2.416;2022-10-14T13:24:21;4.40;;;1.73;;
15177;SDS011;7689;53.612;-2.416;2022-10-14T13:29:53;7.97;;;1.80;;
15177;SDS011;7689;53.612;-2.416;2022-10-14T13:37:42;3.10;;;1.40;;
15177;SDS011;7689;53.612;-2.416;2022-10-14T13:40:27;2.15;;;1.42;;
15177;SDS011;7689;53.612;-2.416;2022-10-14T13:42:59;2.45;;;1.30;;
15177;SDS011;7689;53.612;-2.416;2022-10-14T13:45:33;1.52;;;1.30;;
15177;SDS011;7689;53.612;-2.416;2022-10-14T13:48:03;1.40;;;1.27;;
15177;SDS011;7689;53.612;-2.416;2022-10-14T13:50:33;4.32;;;1.52;;
15177;SDS011;7689;53.612;-2.416;2022-10-14T13:53:03;2.55;;;1.50;;
15177;SDS011;7689;53.612;-2.416;2022-10-14T13:55:30;2.08;;;1.42;;
15177;SDS011;7689;53.612;-2.416;2022-10-14T14:00:40;1.48;;;1.38;;
15177;SDS011;7689;53.612;-2.416;2022-10-14T14:03:35;5.20;;;1.80;;
15177;SDS011;7689;53.612;-2.416;2022-10-14T14:06:11;2.85;;;1.40;;
15177;SDS011;7689;53.612;-2.416;2022-10-14T14:08:52;6.07;;;2.05;;
15177;SDS011;7689;53.612;-2.416;2022-10-14T14:11:27;5.47;;;2.05;;
15177;SDS011;7689;53.612;-2.416;2022-10-14T14:13:56;8.32;;;2.65;;
15177;SDS011;7689;53.612;-2.416;2022-10-14T14:16:24;2.47;;;2.10;;
15177;SDS011;7689;53.612;-2.416;2022-10-14T14:18:54;5.82;;;2.20;;
15177;SDS011;7689;53.612;-2.416;2022-10-14T14:21:21;5.85;;;2.15;;
15177;SDS011;7689;53.612;-2.416;2022-10-14T14:23:58;4.05;;;2.17;;
15177;SDS011;7689;53.612;-2.416;2022-10-14T14:26:31;7.38;;;2.00;;
15177;SDS011;7689;53.612;-2.416;2022-10-14T14:29:02;6.22;;;2.08;;
15177;SDS011;7689;53.612;-2.416;2022-10-14T14:31:44;5.00;;;2.10;;
15177;SDS011;7689;53.612;-2.416;2022-10-14T14:34:17;7.10;;;2.00;;
15177;SDS011;7689;53.612;-2.416;2022-10-14T14:36:45;7.88;;;2.58;;
15177;SDS011;7689;53.612;-2.416;2022-10-14T14:39:24;5.03;;;1.65;;
15177;SDS011;7689;53.612;-2.416;2022-10-14T14:41:53;6.53;;;2.13;;
15177;SDS011;7689;53.612;-2.416;2022-10-14T14:44:22;3.80;;;1.80;;
15177;SDS011;7689;53.612;-2.416;2022-10-14T14:46:50;4.53;;;2.15;;
15177;SDS011;7689;53.612;-2.416;2022-10-14T14:49:36;4.38;;;1.83;;
15177;SDS011;7689;53.612;-2.416;2022-10-14T14:52:03;6.20;;;2.10;;
15177;SDS011;7689;53.612;-2.416;2022-10-14T14:54:30;5.18;;;2.17;;
15177;SDS011;7689;53.612;-2.416;2022-10-14T15:02:02;5.35;;;2.45;;
15177;SDS011;7689;53.612;-2.416;2022-10-14T15:04:34;5.78;;;2.08;;
15177;SDS011;7689;53.612;-2.416;2022-10-14T15:07:02;6.18;;;2.30;;
15177;SDS011;7689;53.612;-2.416;2022-10-14T15:09:45;4.55;;;2.15;;
15177;SDS011;7689;53.612;-2.416;2022-10-14T15:12:26;3.05;;;2.00;;
15177;SDS011;7689;53.612;-2.416;2022-10-14T15:14:58;6.03;;;2.10;;
15177;SDS011;7689;53.612;-2.416;2022-10-14T15:22:36;5.03;;;2.50;;
15177;SDS011;7689;53.612;-2.416;2022-10-14T15:25:08;6.95;;;2.75;;
15177;SDS011;7689;53.612;-2.416;2022-10-14T15:30:15;3.97;;;2.38;;
15177;SDS011;7689;53.612;-2.416;2022-10-14T15:32:46;6.05;;;2.75;;
15177;SDS011;7689;53.612;-2.416;2022-10-14T15:35:17;2.60;;;2.00;;
15177;SDS011;7689;53.612;-2.416;2022-10-14T15:37:44;5.28;;;2.25;;
15177;SDS011;7689;53.612;-2.416;2022-10-14T15:40:12;4.80;;;2.05;;
15177;SDS011;7689;53.612;-2.416;2022-10-14T15:42:39;4.68;;;2.17;;
15177;SDS011;7689;53.612;-2.416;2022-10-14T15:45:05;3.75;;;1.70;;
15177;SDS011;7689;53.612;-2.416;2022-10-14T15:47:32;7.22;;;2.90;;
15177;SDS011;7689;53.612;-2.416;2022-10-14T15:49:57;4.40;;;1.92;;
15177;SDS011;7689;53.612;-2.416;2022-10-14T15:52:23;5.13;;;2.00;;
15177;SDS011;7689;53.612;-2.416;2022-10-14T15:54:49;2.30;;;1.52;;
15177;SDS011;7689;53.612;-2.416;2022-10-14T15:57:15;4.45;;;1.90;;
15177;SDS011;7689;53.612;-2.416;2022-10-14T15:59:41;5.80;;;1.75;;
15177;SDS011;7689;53.612;-2.416;2022-10-14T16:02:14;3.08;;;1.80;;
15177;SDS011;7689;53.612;-2.416;2022-10-14T16:04:43;3.83;;;1.90;;
15177;SDS011;7689;53.612;-2.416;2022-10-14T16:07:12;4.22;;;1.70;;
15177;SDS011;7689;53.612;-2.416;2022-10-14T16:09:38;10.48;;;2.30;;
15177;SDS011;7689;53.612;-2.416;2022-10-14T16:12:04;3.35;;;2.20;;
15177;SDS011;7689;53.612;-2.416;2022-10-14T16:14:35;4.07;;;1.90;;
15177;SDS011;7689;53.612;-2.416;2022-10-14T16:17:01;4.43;;;2.13;;
15177;SDS011;7689;53.612;-2.416;2022-10-14T16:19:27;8.50;;;2.22;;
15177;SDS011;7689;53.612;-2.416;2022-10-14T16:21:53;3.17;;;2.10;;
15177;SDS011;7689;53.612;-2.416;2022-10-14T16:24:19;7.38;;;1.77;;
15177;SDS011;7689;53.612;-2.416;2022-10-14T16:26:49;6.43;;;1.73;;
15177;SDS011;7689;53.612;-2.416;2022-10-14T16:29:15;4.88;;;1.65;;
15177;SDS011;7689;53.612;-2.416;2022-10-14T16:31:43;5.28;;;1.85;;
15177;SDS011;7689;53.612;-2.416;2022-10-14T16:34:17;4.15;;;2.03;;
15177;SDS011;7689;53.612;-2.416;2022-10-14T16:36:44;3.00;;;1.58;;
15177;SDS011;7689;53.612;-2.416;2022-10-14T16:39:10;5.82;;;1.85;;
15177;SDS011;7689;53.612;-2.416;2022-10-14T16:41:37;2.47;;;1.70;;
15177;SDS011;7689;53.612;-2.416;2022-10-14T16:44:03;6.20;;;2.38;;
15177;SDS011;7689;53.612;-2.416;2022-10-14T16:46:29;4.20;;;1.90;;
15177;SDS011;7689;53.612;-2.416;2022-10-14T16:49:13;5.25;;;2.00;;
15177;SDS011;7689;53.612;-2.416;2022-10-14T16:51:42;5.70;;;2.30;;
15177;SDS011;7689;53.612;-2.416;2022-10-14T16:54:08;5.82;;;1.73;;
15177;SDS011;7689;53.612;-2.416;2022-10-14T16:56:35;7.55;;;2.17;;
15177;SDS011;7689;53.612;-2.416;2022-10-14T16:59:19;5.80;;;2.67;;
15177;SDS011;7689;53.612;-2.416;2022-10-14T17:01:46;4.43;;;1.58;;
15177;SDS011;7689;53.612;-2.416;2022-10-14T17:04:13;5.18;;;1.75;;
15177;SDS011;7689;53.612;-2.416;2022-10-14T17:06:39;5.45;;;2.40;;
15177;SDS011;7689;53.612;-2.416;2022-10-14T17:09:05;2.97;;;1.92;;
15177;SDS011;7689;53.612;-2.416;2022-10-14T17:11:30;10.05;;;5.05;;
15177;SDS011;7689;53.612;-2.416;2022-10-14T17:13:58;5.07;;;2.42;;
15177;SDS011;7689;53.612;-2.416;2022-10-14T17:16:24;3.67;;;2.25;;
15177;SDS011;7689;53.612;-2.416;2022-10-14T17:18:54;5.93;;;2.55;;
15177;SDS011;7689;53.612;-2.416;2022-10-14T17:21:21;2.97;;;2.03;;
15177;SDS011;7689;53.612;-2.416;2022-10-14T17:23:47;4.93;;;1.90;;
15177;SDS011;7689;53.612;-2.416;2022-10-14T17:26:13;7.68;;;2.17;;
15177;SDS011;7689;53.612;-2.416;2022-10-14T17:28:42;6.50;;;2.05;;
15177;SDS011;7689;53.612;-2.416;2022-10-14T17:31:18;6.15;;;2.08;;
15177;SDS011;7689;53.612;-2.416;2022-10-14T17:33:44;6.13;;;2.20;;
15177;SDS011;7689;53.612;-2.416;2022-10-14T17:36:24;6.15;;;3.95;;
15177;SDS011;7689;53.612;-2.416;2022-10-14T17:38:55;9.43;;;3.65;;